Time,TemperatureF,DewpointF,PressureIn,WindDirection,WindDirectionDegrees,WindSpeedMPH,WindSpeedGustMPH,Humidity,HourlyPrecipIn,Conditions,Clouds,dailyrainin,SolarRadiationWatts/m^2,SoftwareType,DateUTC
2013-08-21 01:00:00,66.0,64.0,-100.00,SE,135,1.0,-999.0,94,-99.99,,,-99.99,1.160000,,2013-08-21 05:00:00,
2013-08-21 01:43:00,66.0,64.0,-100.00,SE,135,1.0,-999.0,94,-99.99,,,-99.99,1.160000,,2013-08-21 05:43:00,
2013-08-21 01:52:00,66.0,64.0,-100.00,SE,135,1.0,-999.0,94,-99.99,,,-99.99,1.160000,,2013-08-21 05:52:00,
2013-08-21 02:00:00,66.0,63.0,-100.00,SE,135,1.0,-999.0,91,-99.99,,,-99.99,1.160000,,2013-08-21 06:00:00,
2013-08-21 02:42:00,66.0,63.0,-100.00,SE,135,1.0,-999.0,91,-99.99,,,-99.99,1.160000,,2013-08-21 06:42:00,
2013-08-21 02:52:00,66.0,63.0,-100.00,SE,135,1.0,-999.0,91,-99.99,,,-99.99,1.160000,,2013-08-21 06:52:00,
2013-08-21 03:00:00,65.0,63.0,-100.00,ESE,112,0.0,-999.0,94,-99.99,,,-99.99,1.160000,,2013-08-21 07:00:00,
2013-08-21 03:42:00,65.0,63.0,-100.00,ESE,112,0.0,-999.0,94,-99.99,,,-99.99,1.160000,,2013-08-21 07:42:00,
2013-08-21 03:53:00,65.0,63.0,-100.00,ESE,112,0.0,-999.0,94,-99.99,,,-99.99,1.160000,,2013-08-21 07:53:00,
2013-08-21 04:00:00,64.0,63.0,-100.00,SE,135,0.0,-999.0,95,-99.99,,,-99.99,1.160000,,2013-08-21 08:00:00,
2013-08-21 04:43:00,64.0,63.0,-100.00,SE,135,0.0,-999.0,95,-99.99,,,-99.99,1.160000,,2013-08-21 08:43:00,
2013-08-21 04:53:00,64.0,63.0,-100.00,SE,135,0.0,-999.0,95,-99.99,,,-99.99,1.160000,,2013-08-21 08:53:00,
2013-08-21 05:00:00,65.0,63.0,-100.00,SE,135,1.0,-999.0,91,-99.99,,,-99.99,1.160000,,2013-08-21 09:00:00,
2013-08-21 05:43:00,65.0,63.0,-100.00,SE,135,1.0,-999.0,91,-99.99,,,-99.99,1.160000,,2013-08-21 09:43:00,
2013-08-21 05:54:00,65.0,63.0,-100.00,SE,135,1.0,-999.0,91,-99.99,,,-99.99,1.160000,,2013-08-21 09:54:00,
2013-08-21 06:00:00,63.0,61.0,-100.00,SSE,157,0.0,-999.0,92,-99.99,,,-99.99,1.160000,,2013-08-21 10:00:00,
2013-08-21 06:43:00,63.0,61.0,-100.00,SSE,157,0.0,-999.0,92,-99.99,,,-99.99,1.160000,,2013-08-21 10:43:00,
2013-08-21 06:53:00,63.0,61.0,-100.00,SSE,157,0.0,-999.0,92,-99.99,,,-99.99,1.160000,,2013-08-21 10:53:00,
2013-08-21 07:00:00,62.0,61.0,-100.00,SSE,157,0.0,-999.0,95,-99.99,,,-99.99,1.160000,,2013-08-21 11:00:00,
2013-08-21 07:42:00,62.0,61.0,-100.00,SSE,157,0.0,-999.0,95,-99.99,,,-99.99,1.160000,,2013-08-21 11:42:00,
2013-08-21 07:53:00,62.0,61.0,-100.00,SSE,157,0.0,-999.0,95,-99.99,,,-99.99,1.160000,,2013-08-21 11:53:00,
2013-08-21 09:00:00,69.0,65.0,-100.00,South,180,2.0,-999.0,88,-99.99,,,-99.99,180.960007,,2013-08-21 13:00:00,
2013-08-21 09:42:00,69.0,65.0,-100.00,South,180,2.0,-999.0,88,-99.99,,,-99.99,180.960007,,2013-08-21 13:42:00,
2013-08-21 09:52:00,69.0,65.0,-100.00,South,180,2.0,-999.0,88,-99.99,,,-99.99,180.960007,,2013-08-21 13:52:00,
2013-08-21 10:00:00,74.0,67.0,-100.00,SSW,202,3.0,-999.0,77,-99.99,,,-99.99,334.079987,,2013-08-21 14:00:00,
2013-08-21 10:42:00,74.0,67.0,-100.00,SSW,202,3.0,-999.0,77,-99.99,,,-99.99,334.079987,,2013-08-21 14:42:00,
2013-08-21 10:52:00,74.0,67.0,-100.00,SSW,202,3.0,-999.0,77,-99.99,,,-99.99,334.079987,,2013-08-21 14:52:00,
2013-08-21 12:00:00,82.0,68.0,-100.00,SSW,202,3.0,-999.0,62,-99.99,,,-99.99,598.559998,,2013-08-21 16:00:00,
2013-08-21 12:43:00,82.0,68.0,-100.00,SSW,202,3.0,-999.0,62,-99.99,,,-99.99,598.559998,,2013-08-21 16:43:00,
2013-08-21 12:53:00,82.0,68.0,-100.00,SSW,202,3.0,-999.0,62,-99.99,,,-99.99,598.559998,,2013-08-21 16:53:00,
2013-08-21 13:00:00,84.0,67.0,-100.00,SW,225,4.0,-999.0,55,-99.99,,,-99.99,664.679993,,2013-08-21 17:00:00,
2013-08-21 13:43:00,84.0,67.0,-100.00,SW,225,4.0,-999.0,55,-99.99,,,-99.99,664.679993,,2013-08-21 17:43:00,
2013-08-21 13:53:00,84.0,67.0,-100.00,SW,225,4.0,-999.0,55,-99.99,,,-99.99,664.679993,,2013-08-21 17:53:00,
2013-08-21 14:00:00,83.0,66.0,-100.00,SW,225,3.0,-999.0,55,-99.99,,,-99.99,496.480011,,2013-08-21 18:00:00,
2013-08-21 14:42:00,83.0,66.0,-100.00,SW,225,3.0,-999.0,55,-99.99,,,-99.99,496.480011,,2013-08-21 18:42:00,
2013-08-21 14:52:00,83.0,66.0,-100.00,SW,225,3.0,-999.0,55,-99.99,,,-99.99,496.480011,,2013-08-21 18:52:00,
2013-08-21 15:00:00,86.0,65.0,-100.00,WSW,247,3.0,-999.0,50,-99.99,,,-99.99,673.960022,,2013-08-21 19:00:00,
2013-08-21 15:42:00,86.0,65.0,-100.00,WSW,247,3.0,-999.0,50,-99.99,,,-99.99,673.960022,,2013-08-21 19:42:00,
2013-08-21 15:52:00,86.0,65.0,-100.00,WSW,247,3.0,-999.0,50,-99.99,,,-99.99,673.960022,,2013-08-21 19:52:00,
2013-08-21 17:00:00,86.0,64.0,-100.00,SW,225,3.0,-999.0,47,-99.99,,,-99.99,537.080017,,2013-08-21 21:00:00,
2013-08-21 17:45:00,86.0,64.0,-100.00,SW,225,3.0,-999.0,47,-99.99,,,-99.99,537.080017,,2013-08-21 21:45:00,
2013-08-21 17:55:00,86.0,64.0,-100.00,SW,225,3.0,-999.0,47,-99.99,,,-99.99,537.080017,,2013-08-21 21:55:00,
2013-08-21 18:00:00,86.0,64.0,-100.00,SW,225,3.0,-999.0,48,-99.99,,,-99.99,397.880005,,2013-08-21 22:00:00,
2013-08-21 18:44:00,86.0,64.0,-100.00,SW,225,3.0,-999.0,48,-99.99,,,-99.99,397.880005,,2013-08-21 22:44:00,
2013-08-21 18:53:00,86.0,64.0,-100.00,SW,225,3.0,-999.0,48,-99.99,,,-99.99,397.880005,,2013-08-21 22:53:00,
2013-08-21 19:00:00,84.0,65.0,-100.00,SSW,202,3.0,-999.0,52,-99.99,,,-99.99,232.000000,,2013-08-21 23:00:00,
2013-08-21 19:43:00,84.0,65.0,-100.00,SSW,202,3.0,-999.0,52,-99.99,,,-99.99,232.000000,,2013-08-21 23:43:00,
2013-08-21 19:53:00,84.0,65.0,-100.00,SSW,202,3.0,-999.0,52,-99.99,,,-99.99,232.000000,,2013-08-21 23:53:00,
2013-08-21 21:00:00,76.0,67.0,-100.00,SSE,157,1.0,-999.0,75,-99.99,,,-99.99,8.120000,,2013-08-22 01:00:00,
2013-08-21 21:42:00,76.0,67.0,-100.00,SSE,157,1.0,-999.0,75,-99.99,,,-99.99,8.120000,,2013-08-22 01:42:00,
2013-08-21 21:52:00,76.0,67.0,-100.00,SSE,157,1.0,-999.0,75,-99.99,,,-99.99,8.120000,,2013-08-22 01:52:00,
2013-08-21 22:00:00,73.0,68.0,-100.00,SSE,157,0.0,-999.0,85,-99.99,,,-99.99,0.000000,,2013-08-22 02:00:00,
2013-08-21 22:52:00,73.0,68.0,-100.00,SSE,157,0.0,-999.0,85,-99.99,,,-99.99,0.000000,,2013-08-22 02:52:00,
2013-08-21 23:00:00,74.0,65.0,-100.00,South,180,2.0,-999.0,73,-99.99,,,-99.99,0.000000,,2013-08-22 03:00:00,
2013-08-21 23:45:00,74.0,65.0,-100.00,South,180,2.0,-999.0,73,-99.99,,,-99.99,0.000000,,2013-08-22 03:45:00,
2013-08-21 23:54:00,74.0,65.0,-100.00,South,180,2.0,-999.0,73,-99.99,,,-99.99,0.000000,,2013-08-22 03:54:00,